Marshall, California
Current Conditions -  °F | °C
As of 11:55 AM on Friday 19 Dec 2014 (Local Time) from KDVO Reporting Station
Haze Haze  
Wind Chill: 55°   Ceiling: 800
Heat Index: 55°   Visibility: 1.2mi
Dew Point: 55°   Wind: 6mph
Humidity: 100%   Direction: 140°SE
Pressure: 30.15"   Gusts: NA
Location:  38.16°N, 122.89°W
Report Text: KDVO 191955Z AUTO 14005KT 1 1/4SM BR SCT002 BKN008 OVC023 13/13 A3015 RMK AO2 P0003
Loading
Personal Weather Stations






























Interactive Weather Map New forecast layout! Learn more

10-Day Weather Forecast

Advertisements
Track Severe Weather on mobile